createdAt,value
2019-03-25T00:00:02.119Z,98620.77
2019-03-25T00:01:18.025Z,98612.66
2019-03-25T00:02:28.005Z,98621.25
2019-03-25T00:03:36.581Z,98620.44
2019-03-25T00:04:44.570Z,98616.30
2019-03-25T00:05:53.040Z,98613.05
2019-03-25T00:07:01.210Z,98608.23
2019-03-25T00:08:09.577Z,98610.17
2019-03-25T00:09:17.964Z,98614.77
2019-03-25T00:10:25.874Z,98614.73
2019-03-25T00:11:34.477Z,98611.71
2019-03-25T00:12:42.926Z,98606.25
2019-03-25T00:13:51.232Z,98605.05
2019-03-25T00:14:59.589Z,98601.28
2019-03-25T00:16:07.727Z,98597.02
2019-03-25T00:17:15.868Z,98597.36
2019-03-25T00:18:24.089Z,98597.98
2019-03-25T00:19:32.204Z,98597.98
2019-03-25T00:20:40.685Z,98594.35
2019-03-25T00:21:48.688Z,98593.27
2019-03-25T00:22:56.798Z,98597.72
2019-03-25T00:24:04.697Z,98597.52
2019-03-25T00:25:12.590Z,98588.84
2019-03-25T00:26:20.702Z,98593.94
2019-03-25T00:27:28.763Z,98580.05
2019-03-25T00:28:36.978Z,98588.41
2019-03-25T00:29:44.964Z,98581.77
2019-03-25T00:30:53.076Z,98585.36
2019-03-25T00:32:01.245Z,98586.73
2019-03-25T00:33:09.237Z,98586.38
2019-03-25T00:34:16.960Z,98586.97
2019-03-25T00:35:25.030Z,98583.87
2019-03-25T00:36:33.244Z,98581.44
2019-03-25T00:37:41.463Z,98587.10
2019-03-25T00:38:49.517Z,98583.34
2019-03-25T00:39:57.647Z,98580.58
2019-03-25T00:41:05.947Z,98573.67
2019-03-25T00:42:13.936Z,98574.16
2019-03-25T00:43:21.906Z,98578.77
2019-03-25T00:44:29.702Z,98573.20
2019-03-25T00:45:37.806Z,98569.61
2019-03-25T00:46:46.003Z,98577.23
2019-03-25T00:47:53.880Z,98569.27
2019-03-25T00:49:01.792Z,98571.16
2019-03-25T00:50:10.061Z,98571.52
2019-03-25T00:51:18.419Z,98561.30
2019-03-25T00:52:26.489Z,98565.63
2019-03-25T00:53:34.497Z,98561.52
2019-03-25T00:54:49.919Z,98562.35
2019-03-25T00:55:51.969Z,98558.59
2019-03-25T00:56:59.772Z,98562.58
2019-03-25T00:58:07.807Z,98561.36
2019-03-25T00:59:15.872Z,98560.74
2019-03-25T01:00:23.967Z,98560.37
2019-03-25T01:01:32.093Z,98562.06
2019-03-25T01:02:40.080Z,98560.23
2019-03-25T01:03:48.263Z,98552.27
2019-03-25T01:04:56.168Z,98544.65
2019-03-25T01:06:04.254Z,98547.44
2019-03-25T01:07:12.169Z,98550.10
2019-03-25T01:08:20.251Z,98548.91
2019-03-25T01:09:28.536Z,98536.83
2019-03-25T01:10:36.498Z,98538.41
2019-03-25T01:11:49.375Z,98533.31
2019-03-25T01:12:54.454Z,98528.14
2019-03-25T01:14:02.477Z,98534.88
2019-03-25T01:15:11.182Z,98531.78
2019-03-25T01:16:19.287Z,98526.36
2019-03-25T01:17:27.443Z,98528.39
2019-03-25T01:18:35.397Z,98524.19
2019-03-25T01:19:43.293Z,98525.43
2019-03-25T01:20:51.297Z,98523.63
2019-03-25T01:21:59.594Z,98530.89
2019-03-25T01:23:07.575Z,98518.33
2019-03-25T01:24:15.557Z,98530.30
2019-03-25T01:25:23.511Z,98517.64
2019-03-25T01:26:31.368Z,98518.25
2019-03-25T01:27:39.315Z,98518.25
2019-03-25T01:28:47.479Z,98518.11
2019-03-25T01:29:55.121Z,98517.76
2019-03-25T01:31:02.930Z,98516.78
2019-03-25T01:32:11.027Z,98516.53
2019-03-25T01:33:19.094Z,98515.34
2019-03-25T01:34:27.076Z,98513.31
2019-03-25T01:35:35.056Z,98519.95
2019-03-25T01:36:43.252Z,98517.80
2019-03-25T01:37:51.166Z,98514.43
2019-03-25T01:38:59.041Z,98515.14
2019-03-25T01:40:09.394Z,98507.66
2019-03-25T01:41:17.535Z,98513.82
2019-03-25T01:42:25.620Z,98510.11
2019-03-25T01:43:33.387Z,98507.23
2019-03-25T01:44:41.914Z,98506.66
2019-03-25T01:45:49.971Z,98507.99
2019-03-25T01:46:58.011Z,98508.22
2019-03-25T01:48:05.987Z,98506.89
2019-03-25T01:49:13.985Z,98510.78
2019-03-25T01:50:22.113Z,98502.11
2019-03-25T01:51:30.074Z,98503.91
2019-03-25T01:52:38.177Z,98505.95
2019-03-25T01:53:46.032Z,98504.63
2019-03-25T01:54:53.956Z,98508.73
2019-03-25T01:56:02.063Z,98504.98
2019-03-25T01:57:10.190Z,98506.92
2019-03-25T01:58:18.133Z,98510.68
2019-03-25T01:59:26.137Z,98501.88
2019-03-25T02:00:34.031Z,98495.95
2019-03-25T02:01:42.229Z,98497.87
2019-03-25T02:02:50.226Z,98499.06
2019-03-25T02:03:58.247Z,98500.52
2019-03-25T02:05:07.704Z,98493.66
2019-03-25T02:06:15.669Z,98490.30
2019-03-25T02:07:23.744Z,98485.96
2019-03-25T02:08:31.859Z,98488.35
2019-03-25T02:09:40.483Z,98482.69
2019-03-25T02:10:48.673Z,98477.74
2019-03-25T02:11:56.773Z,98481.50
2019-03-25T02:13:04.977Z,98478.94
2019-03-25T02:14:12.919Z,98473.63
2019-03-25T02:15:21.063Z,98472.31
2019-03-25T02:16:29.335Z,98473.28
2019-03-25T02:17:37.377Z,98472.17
2019-03-25T02:18:45.351Z,98463.98
2019-03-25T02:19:53.485Z,98470.00
2019-03-25T02:21:01.437Z,98466.87
2019-03-25T02:22:09.434Z,98461.91
2019-03-25T02:23:17.534Z,98468.94
2019-03-25T02:24:25.828Z,98468.20
2019-03-25T02:25:34.026Z,98471.20
2019-03-25T02:26:41.919Z,98470.36
2019-03-25T02:27:50.056Z,98473.50
2019-03-25T02:28:58.103Z,98473.41
2019-03-25T02:30:09.035Z,98478.23
2019-03-25T02:31:17.025Z,98471.34
2019-03-25T02:32:25.066Z,98470.63
2019-03-25T02:33:32.956Z,98472.92
2019-03-25T02:34:41.060Z,98468.94
2019-03-25T02:35:49.255Z,98471.69
2019-03-25T02:36:57.256Z,98470.84
2019-03-25T02:38:05.180Z,98468.55
2019-03-25T02:39:13.251Z,98465.90
2019-03-25T02:40:21.443Z,98471.47
2019-03-25T02:41:29.529Z,98464.83
2019-03-25T02:42:37.652Z,98461.69
2019-03-25T02:43:45.643Z,98471.20
2019-03-25T02:44:53.666Z,98466.16
2019-03-25T02:46:01.913Z,98466.78
2019-03-25T02:47:10.012Z,98466.91
2019-03-25T02:48:18.197Z,98467.00
2019-03-25T02:49:26.419Z,98462.54
2019-03-25T02:50:34.508Z,98464.97
2019-03-25T02:51:42.428Z,98464.39
2019-03-25T02:52:50.854Z,98458.83
2019-03-25T02:53:58.895Z,98456.08
2019-03-25T02:55:08.145Z,98458.11
2019-03-25T02:56:16.319Z,98462.84
2019-03-25T02:57:24.300Z,98466.52
2019-03-25T02:58:32.595Z,98462.19
2019-03-25T02:59:40.836Z,98462.09
2019-03-25T03:00:48.707Z,98460.50
2019-03-25T03:01:56.594Z,98459.66
2019-03-25T03:03:05.361Z,98456.17
2019-03-25T03:04:13.649Z,98448.83
2019-03-25T03:05:21.862Z,98450.64
2019-03-25T03:06:30.027Z,98447.38
2019-03-25T03:07:38.127Z,98447.98
2019-03-25T03:08:47.678Z,98451.61
2019-03-25T03:09:56.139Z,98434.95
2019-03-25T03:11:04.302Z,98444.36
2019-03-25T03:12:12.563Z,98444.36
2019-03-25T03:13:20.682Z,98447.98
2019-03-25T03:14:28.835Z,98439.06
2019-03-25T03:15:37.008Z,98434.86
2019-03-25T03:16:44.796Z,98438.45
2019-03-25T03:17:52.626Z,98436.28
2019-03-25T03:19:00.541Z,98434.38
2019-03-25T03:20:09.218Z,98436.54
2019-03-25T03:21:17.258Z,98433.14
2019-03-25T03:22:25.309Z,98434.34
2019-03-25T03:23:33.418Z,98434.95
2019-03-25T03:24:41.511Z,98439.52
2019-03-25T03:25:56.955Z,98440.65
2019-03-25T03:26:59.186Z,98438.58
2019-03-25T03:28:07.241Z,98439.42
2019-03-25T03:29:15.286Z,98430.62
2019-03-25T03:30:24.037Z,98430.63
2019-03-25T03:31:31.886Z,98432.53
2019-03-25T03:32:39.905Z,98427.23
2019-03-25T03:33:47.908Z,98428.45
2019-03-25T03:34:56.685Z,98427.97
2019-03-25T03:36:04.573Z,98425.06
2019-03-25T03:37:12.827Z,98422.41
2019-03-25T03:38:20.893Z,98421.21
2019-03-25T03:39:28.936Z,98424.00
2019-03-25T03:40:37.578Z,98417.02
2019-03-25T03:41:45.621Z,98420.28
2019-03-25T03:42:53.818Z,98417.98
2019-03-25T03:44:02.146Z,98413.65
2019-03-25T03:45:10.508Z,98415.81
2019-03-25T03:46:18.621Z,98414.84
2019-03-25T03:47:26.612Z,98419.30
2019-03-25T03:48:34.421Z,98413.74
2019-03-25T03:49:42.295Z,98418.20
2019-03-25T03:50:50.231Z,98420.60
2019-03-25T03:51:58.730Z,98419.53
2019-03-25T03:53:07.141Z,98424.00
2019-03-25T03:54:15.666Z,98414.48
2019-03-25T03:55:23.794Z,98416.78
2019-03-25T03:56:32.867Z,98414.84
2019-03-25T03:57:41.188Z,98415.20
2019-03-25T03:58:50.186Z,98419.89
2019-03-25T03:59:59.503Z,98421.92
2019-03-25T04:01:07.675Z,98422.41
2019-03-25T04:02:16.124Z,98418.56
2019-03-25T04:03:24.313Z,98415.20
2019-03-25T04:04:32.191Z,98416.04
2019-03-25T04:05:40.500Z,98417.95
2019-03-25T04:06:48.391Z,98411.67
2019-03-25T04:07:56.562Z,98413.77
2019-03-25T04:09:06.198Z,98414.23
2019-03-25T04:10:14.322Z,98409.02
2019-03-25T04:11:22.523Z,98406.27
2019-03-25T04:12:30.922Z,98395.53
2019-03-25T04:13:38.992Z,98399.03
2019-03-25T04:14:47.116Z,98389.27
2019-03-25T04:15:55.180Z,98389.04
2019-03-25T04:17:03.209Z,98397.70
2019-03-25T04:18:11.014Z,98389.66
2019-03-25T04:19:19.611Z,98386.52
2019-03-25T04:20:27.691Z,98390.72
2019-03-25T04:21:35.737Z,98389.17
2019-03-25T04:22:44.091Z,98385.55
2019-03-25T04:23:52.101Z,98378.79
2019-03-25T04:24:59.997Z,98375.91
2019-03-25T04:26:07.968Z,98379.27
2019-03-25T04:27:15.978Z,98377.59
2019-03-25T04:28:23.817Z,98372.51
2019-03-25T04:29:32.164Z,98370.95
2019-03-25T04:30:40.360Z,98368.56
2019-03-25T04:31:48.365Z,98368.07
2019-03-25T04:32:56.343Z,98365.29
2019-03-25T04:34:04.345Z,98365.05
2019-03-25T04:35:12.653Z,98373.37
2019-03-25T04:36:20.598Z,98377.70
2019-03-25T04:37:28.391Z,98372.75
2019-03-25T04:38:36.538Z,98372.53
2019-03-25T04:39:44.442Z,98375.53
2019-03-25T04:40:52.423Z,98371.07
2019-03-25T04:42:01.319Z,98373.23
2019-03-25T04:43:09.239Z,98375.17
2019-03-25T04:44:17.249Z,98379.26
2019-03-25T04:45:25.628Z,98375.66
2019-03-25T04:46:35.062Z,98369.03
2019-03-25T04:47:43.178Z,98372.39
2019-03-25T04:48:51.301Z,98369.52
2019-03-25T04:49:59.349Z,98370.23
2019-03-25T04:51:07.829Z,98371.07
2019-03-25T04:52:15.894Z,98370.58
2019-03-25T04:53:24.398Z,98371.42
2019-03-25T04:54:32.629Z,98377.21
2019-03-25T04:55:40.797Z,98380.84
2019-03-25T04:56:48.870Z,98372.73
2019-03-25T04:57:57.346Z,98375.16
2019-03-25T04:59:05.692Z,98373.70
2019-03-25T05:00:14.794Z,98379.75
2019-03-25T05:01:22.911Z,98373.99
2019-03-25T05:02:30.944Z,98379.36
2019-03-25T05:03:38.966Z,98371.41
2019-03-25T05:04:46.953Z,98377.00
2019-03-25T05:05:54.929Z,98372.86
2019-03-25T05:07:03.145Z,98371.19
2019-03-25T05:08:11.066Z,98367.11
2019-03-25T05:09:18.859Z,98360.00
2019-03-25T05:10:26.929Z,98363.27
2019-03-25T05:11:34.925Z,98355.55
2019-03-25T05:12:42.844Z,98354.35
2019-03-25T05:13:51.027Z,98350.86
2019-03-25T05:14:59.236Z,98351.97
2019-03-25T05:16:07.721Z,98351.48
2019-03-25T05:17:15.721Z,98351.26
2019-03-25T05:18:23.835Z,98352.45
2019-03-25T05:19:31.822Z,98348.13
2019-03-25T05:20:39.840Z,98347.77
2019-03-25T05:21:47.686Z,98342.82
2019-03-25T05:22:55.451Z,98346.66
2019-03-25T05:24:03.885Z,98348.96
2019-03-25T05:25:12.071Z,98344.98
2019-03-25T05:26:20.055Z,98343.89
2019-03-25T05:27:28.095Z,98343.66
2019-03-25T05:28:35.995Z,98356.66
2019-03-25T05:29:45.499Z,98345.21
2019-03-25T05:30:53.314Z,98347.77
2019-03-25T05:32:01.059Z,98344.98
2019-03-25T05:33:09.033Z,98354.48
2019-03-25T05:34:16.844Z,98351.22
2019-03-25T05:35:24.680Z,98353.16
2019-03-25T05:36:32.694Z,98347.02
2019-03-25T05:37:40.651Z,98348.83
2019-03-25T05:38:49.010Z,98345.83
2019-03-25T05:39:57.162Z,98352.19
2019-03-25T05:41:05.389Z,98345.34
2019-03-25T05:42:13.233Z,98347.73
2019-03-25T05:43:21.402Z,98348.12
2019-03-25T05:44:29.529Z,98344.23
2019-03-25T05:45:37.546Z,98345.56
2019-03-25T05:46:45.540Z,98348.22
2019-03-25T05:47:53.494Z,98348.22
2019-03-25T05:49:01.635Z,98354.13
2019-03-25T05:50:10.015Z,98351.74
2019-03-25T05:51:17.858Z,98355.33
2019-03-25T05:52:25.902Z,98351.00
2019-03-25T05:53:33.827Z,98351.74
2019-03-25T05:54:41.652Z,98353.91
2019-03-25T05:55:50.041Z,98350.41
2019-03-25T05:57:02.870Z,98350.90
2019-03-25T05:58:08.130Z,98345.47
2019-03-25T05:59:16.532Z,98349.31
2019-03-25T06:00:26.073Z,98350.77
2019-03-25T06:01:34.075Z,98352.31
2019-03-25T06:02:42.298Z,98345.56
2019-03-25T06:03:50.851Z,98345.92
2019-03-25T06:04:58.858Z,98346.31
2019-03-25T06:06:07.479Z,98346.53
2019-03-25T06:07:15.460Z,98340.88
2019-03-25T06:08:23.560Z,98343.79
2019-03-25T06:09:31.772Z,98341.14
2019-03-25T06:10:40.163Z,98342.82
2019-03-25T06:11:48.175Z,98340.66
2019-03-25T06:12:56.369Z,98342.47
2019-03-25T06:14:04.661Z,98342.56
2019-03-25T06:15:13.285Z,98340.53
2019-03-25T06:16:21.375Z,98340.91
2019-03-25T06:17:29.265Z,98343.30
2019-03-25T06:18:37.968Z,98341.14
2019-03-25T06:19:46.101Z,98343.44
2019-03-25T06:20:54.267Z,98336.20
2019-03-25T06:22:02.671Z,98339.46
2019-03-25T06:23:10.516Z,98344.27
2019-03-25T06:24:18.467Z,98341.98
2019-03-25T06:25:26.480Z,98347.05
2019-03-25T06:26:34.506Z,98346.09
2019-03-25T06:27:42.890Z,98346.44
2019-03-25T06:28:50.984Z,98343.56
2019-03-25T06:29:59.205Z,98354.16
2019-03-25T06:31:07.445Z,98351.16
2019-03-25T06:32:15.704Z,98350.77
2019-03-25T06:33:23.782Z,98349.70
2019-03-25T06:34:31.851Z,98351.03
2019-03-25T06:35:39.949Z,98345.59
2019-03-25T06:36:48.345Z,98345.60
2019-03-25T06:37:56.615Z,98348.25
2019-03-25T06:39:05.708Z,98342.20
2019-03-25T06:40:14.370Z,98341.36
2019-03-25T06:41:22.399Z,98342.20
2019-03-25T06:42:30.767Z,98335.58
2019-03-25T06:43:39.068Z,98334.25
2019-03-25T06:44:46.921Z,98336.15
2019-03-25T06:45:54.958Z,98334.81
2019-03-25T06:47:03.200Z,98336.14
2019-03-25T06:48:11.476Z,98333.00
2019-03-25T06:49:19.455Z,98344.94
2019-03-25T06:50:27.726Z,98346.00
2019-03-25T06:51:35.589Z,98336.62
2019-03-25T06:52:43.875Z,98336.62
2019-03-25T06:53:51.787Z,98336.97
2019-03-25T06:54:59.810Z,98335.61
2019-03-25T06:56:07.926Z,98338.26
2019-03-25T06:57:25.183Z,98336.70
2019-03-25T06:58:26.064Z,98336.48
2019-03-25T06:59:34.504Z,98333.44
2019-03-25T07:00:42.752Z,98332.50
2019-03-25T07:01:50.818Z,98333.24
2019-03-25T07:02:58.911Z,98332.84
2019-03-25T07:04:07.609Z,98333.46
2019-03-25T07:05:17.822Z,98334.44
2019-03-25T07:06:25.717Z,98329.75
2019-03-25T07:07:33.657Z,98329.36
2019-03-25T07:08:41.799Z,98333.09
2019-03-25T07:09:49.879Z,98329.95
2019-03-25T07:10:58.193Z,98329.11
2019-03-25T07:12:06.240Z,98332.86
2019-03-25T07:13:14.712Z,98325.27
2019-03-25T07:14:22.792Z,98331.45
2019-03-25T07:15:31.237Z,98337.13
2019-03-25T07:16:39.378Z,98328.68
2019-03-25T07:17:47.184Z,98331.95
2019-03-25T07:18:55.198Z,98333.76
2019-03-25T07:20:04.301Z,98337.60
2019-03-25T07:21:12.716Z,98333.98
2019-03-25T07:22:20.890Z,98331.47
2019-03-25T07:23:28.834Z,98334.11
2019-03-25T07:24:36.727Z,98330.84
2019-03-25T07:25:45.639Z,98333.00
2019-03-25T07:26:55.548Z,98332.39
2019-03-25T07:28:03.271Z,98327.22
2019-03-25T07:29:11.571Z,98324.70
2019-03-25T07:30:19.606Z,98325.06
2019-03-25T07:31:27.432Z,98331.33
2019-03-25T07:32:35.759Z,98333.98
2019-03-25T07:33:44.066Z,98336.98
2019-03-25T07:34:52.141Z,98332.66
2019-03-25T07:36:00.475Z,98335.66
2019-03-25T07:37:08.625Z,98337.82
2019-03-25T07:38:16.820Z,98338.66
2019-03-25T07:39:24.883Z,98345.06
2019-03-25T07:40:33.018Z,98342.77
2019-03-25T07:41:41.080Z,98341.78
2019-03-25T07:42:49.119Z,98341.42
2019-03-25T07:43:57.036Z,98335.14
2019-03-25T07:45:08.181Z,98341.41
2019-03-25T07:46:16.265Z,98343.22
2019-03-25T07:47:24.512Z,98342.52
2019-03-25T07:48:32.661Z,98340.80
2019-03-25T07:49:40.695Z,98335.39
2019-03-25T07:50:48.756Z,98336.81
2019-03-25T07:51:56.799Z,98331.77
2019-03-25T07:53:05.385Z,98333.11
2019-03-25T07:54:13.325Z,98332.60
2019-03-25T07:55:21.555Z,98333.58
2019-03-25T07:56:29.620Z,98334.77
2019-03-25T07:57:47.659Z,98333.24
2019-03-25T07:58:47.791Z,98332.63
2019-03-25T07:59:55.586Z,98333.24
2019-03-25T08:01:03.472Z,98328.98
2019-03-25T08:02:11.439Z,98325.97
2019-03-25T08:03:19.791Z,98332.00
2019-03-25T08:04:27.790Z,98333.81
2019-03-25T08:05:35.976Z,98328.16
2019-03-25T08:06:44.031Z,98332.26
2019-03-25T08:07:52.394Z,98331.16
2019-03-25T08:09:04.063Z,98334.66
2019-03-25T08:10:11.112Z,98326.11
2019-03-25T08:11:19.749Z,98327.78
2019-03-25T08:12:27.963Z,98319.77
2019-03-25T08:13:36.085Z,98316.89
2019-03-25T08:14:44.141Z,98327.14
2019-03-25T08:15:52.271Z,98320.89
2019-03-25T08:17:00.245Z,98307.56
2019-03-25T08:18:08.425Z,98304.05
2019-03-25T08:19:17.280Z,98302.64
2019-03-25T08:20:25.264Z,98322.80
2019-03-25T08:21:33.163Z,98316.77
2019-03-25T08:22:41.442Z,98319.33
2019-03-25T08:23:49.337Z,98320.66
2019-03-25T08:24:57.707Z,98321.49
2019-03-25T08:26:05.669Z,98313.31
2019-03-25T08:27:13.645Z,98313.22
2019-03-25T08:28:21.762Z,98312.34
2019-03-25T08:29:29.776Z,98315.13
2019-03-25T08:30:38.185Z,98312.83
2019-03-25T08:31:46.223Z,98312.73
2019-03-25T08:32:54.067Z,98315.13
2019-03-25T08:34:01.886Z,98303.42
2019-03-25T08:35:09.975Z,98303.77
2019-03-25T08:36:18.113Z,98301.11
2019-03-25T08:37:26.171Z,98307.25
2019-03-25T08:38:34.507Z,98298.94
2019-03-25T08:39:42.399Z,98305.65
2019-03-25T08:40:50.401Z,98298.41
2019-03-25T08:41:58.461Z,98296.60
2019-03-25T08:43:06.984Z,98291.91
2019-03-25T08:44:14.752Z,98289.11
2019-03-25T08:45:23.135Z,98286.70
2019-03-25T08:46:31.437Z,98283.70
2019-03-25T08:47:39.253Z,98287.53
2019-03-25T08:48:47.323Z,98276.42
2019-03-25T08:49:55.237Z,98275.66
2019-03-25T08:51:03.351Z,98275.25
2019-03-25T08:52:11.432Z,98284.00
2019-03-25T08:53:19.271Z,98272.52
2019-03-25T08:54:27.341Z,98275.98
2019-03-25T08:55:35.156Z,98273.34
2019-03-25T08:56:43.153Z,98275.61
2019-03-25T08:57:51.137Z,98270.98
2019-03-25T08:58:59.246Z,98277.34
2019-03-25T09:00:10.555Z,98277.69
2019-03-25T09:01:18.508Z,98272.25
2019-03-25T09:02:26.708Z,98264.03
2019-03-25T09:03:34.614Z,98262.92
2019-03-25T09:04:42.569Z,98265.51
2019-03-25T09:05:50.559Z,98258.56
2019-03-25T09:06:58.583Z,98262.33
2019-03-25T09:08:07.147Z,98259.66
2019-03-25T09:09:15.161Z,98257.70
2019-03-25T09:10:23.444Z,98264.66
2019-03-25T09:11:31.850Z,98263.89
2019-03-25T09:12:40.514Z,98256.50
2019-03-25T09:13:48.844Z,98262.42
2019-03-25T09:14:56.742Z,98261.31
2019-03-25T09:16:04.852Z,98256.94
2019-03-25T09:17:12.888Z,98255.06
2019-03-25T09:18:21.184Z,98259.19
2019-03-25T09:19:29.433Z,98256.25
2019-03-25T09:20:37.280Z,98256.43
2019-03-25T09:21:45.353Z,98261.84
2019-03-25T09:22:53.381Z,98256.03
2019-03-25T09:24:01.279Z,98256.81
2019-03-25T09:25:10.169Z,98253.95
2019-03-25T09:26:18.363Z,98250.10
2019-03-25T09:27:26.314Z,98252.33
2019-03-25T09:28:34.428Z,98256.28
2019-03-25T09:29:42.557Z,98248.51
2019-03-25T09:30:57.582Z,98246.80
2019-03-25T09:32:05.822Z,98240.78
2019-03-25T09:33:14.202Z,98239.80
2019-03-25T09:34:22.211Z,98245.30
2019-03-25T09:35:30.739Z,98238.66
2019-03-25T09:36:38.743Z,98245.19
2019-03-25T09:37:47.033Z,98245.10
2019-03-25T09:38:55.011Z,98245.19
2019-03-25T09:40:03.131Z,98237.98
2019-03-25T09:41:11.199Z,98231.97
2019-03-25T09:42:19.579Z,98236.59
2019-03-25T09:43:27.615Z,98230.48
2019-03-25T09:44:35.402Z,98230.27
2019-03-25T09:45:43.476Z,98230.05
2019-03-25T09:46:51.522Z,98222.99
2019-03-25T09:47:59.752Z,98226.77
2019-03-25T09:49:07.964Z,98227.30
2019-03-25T09:50:16.236Z,98224.79
2019-03-25T09:51:24.890Z,98219.27
2019-03-25T09:52:38.513Z,98222.56
2019-03-25T09:53:42.537Z,98224.62
2019-03-25T09:54:50.794Z,98223.48
2019-03-25T09:56:00.535Z,98221.66
2019-03-25T09:57:08.838Z,98220.67
2019-03-25T09:58:17.037Z,98222.34
2019-03-25T09:59:25.527Z,98238.95
2019-03-25T10:00:34.621Z,98237.62
2019-03-25T10:01:42.848Z,98244.49
2019-03-25T10:02:51.372Z,98246.14
2019-03-25T10:03:59.581Z,98247.28
2019-03-25T10:05:07.894Z,98251.56
2019-03-25T10:06:15.951Z,98254.20
2019-03-25T10:07:24.839Z,98249.95
2019-03-25T10:08:32.699Z,98252.30
2019-03-25T10:09:40.611Z,98254.60
2019-03-25T10:10:48.686Z,98255.72
2019-03-25T10:11:56.986Z,98250.38
2019-03-25T10:13:05.165Z,98251.60
2019-03-25T10:14:13.479Z,98242.48
2019-03-25T10:15:21.659Z,98251.01
2019-03-25T10:16:29.921Z,98238.04
2019-03-25T10:17:38.000Z,98238.02
2019-03-25T10:18:46.022Z,98235.46
2019-03-25T10:19:54.175Z,98241.66
2019-03-25T10:21:02.539Z,98237.45
2019-03-25T10:22:10.811Z,98235.53
2019-03-25T10:23:19.129Z,98224.48
2019-03-25T10:24:28.156Z,98218.42
2019-03-25T10:25:36.075Z,98216.10
2019-03-25T10:26:44.367Z,98214.75
2019-03-25T10:27:52.866Z,98213.26
2019-03-25T10:29:00.787Z,98216.63
2019-03-25T10:30:15.326Z,98204.80
2019-03-25T10:31:23.438Z,98203.23
2019-03-25T10:32:32.018Z,98205.50
2019-03-25T10:33:40.119Z,98207.82
2019-03-25T10:34:48.375Z,98207.69
2019-03-25T10:35:56.728Z,98200.03
2019-03-25T10:37:04.942Z,98196.67
2019-03-25T10:38:19.421Z,98191.62
2019-03-25T10:39:22.970Z,98195.24
2019-03-25T10:40:31.486Z,98194.14
2019-03-25T10:41:39.584Z,98187.63
2019-03-25T10:42:47.583Z,98190.31
2019-03-25T10:43:55.677Z,98193.05
2019-03-25T10:45:04.076Z,98188.36
2019-03-25T10:46:12.240Z,98192.63
2019-03-25T10:47:20.475Z,98195.36
2019-03-25T10:48:28.835Z,98195.16
2019-03-25T10:49:37.071Z,98185.83
2019-03-25T10:50:45.171Z,98192.22
2019-03-25T10:51:53.465Z,98187.62
2019-03-25T10:53:01.668Z,98188.22
2019-03-25T10:54:09.981Z,98177.83
2019-03-25T10:55:18.271Z,98174.24
2019-03-25T10:56:26.490Z,98174.93
2019-03-25T10:57:34.564Z,98180.39
2019-03-25T10:58:42.578Z,98178.03
2019-03-25T10:59:50.728Z,98171.47
2019-03-25T11:00:59.076Z,98177.73
2019-03-25T11:02:07.330Z,98168.03
2019-03-25T11:03:15.460Z,98162.59
2019-03-25T11:04:23.759Z,98159.27
2019-03-25T11:05:32.117Z,98165.59
2019-03-25T11:06:40.579Z,98158.72
2019-03-25T11:07:48.671Z,98156.23
2019-03-25T11:08:57.084Z,98145.12
2019-03-25T11:10:08.401Z,98145.00
2019-03-25T11:11:16.740Z,98146.70
2019-03-25T11:12:24.845Z,98136.73
2019-03-25T11:13:33.032Z,98138.73
2019-03-25T11:14:41.029Z,98151.03
2019-03-25T11:15:49.546Z,98128.97
2019-03-25T11:16:57.949Z,98135.34
2019-03-25T11:18:06.279Z,98127.63
2019-03-25T11:19:14.451Z,98131.13
2019-03-25T11:20:22.597Z,98130.02
2019-03-25T11:21:30.683Z,98120.05
2019-03-25T11:22:38.944Z,98114.86
2019-03-25T11:23:47.083Z,98113.13
2019-03-25T11:24:55.110Z,98110.39
2019-03-25T11:26:03.253Z,98113.64
2019-03-25T11:27:11.590Z,98105.31
2019-03-25T11:28:19.782Z,98113.53
2019-03-25T11:29:28.136Z,98107.34
2019-03-25T11:30:51.551Z,98110.05
2019-03-25T11:31:59.587Z,98113.88
2019-03-25T11:33:07.631Z,98118.51
2019-03-25T11:34:15.704Z,98108.92
2019-03-25T11:35:23.834Z,98112.23
2019-03-25T11:36:31.604Z,98109.03
2019-03-25T11:37:40.074Z,98109.53
2019-03-25T11:38:48.066Z,98110.56
2019-03-25T11:39:56.124Z,98106.42
2019-03-25T11:41:05.592Z,98105.77
2019-03-25T11:42:13.814Z,98108.66
2019-03-25T11:43:21.911Z,98099.10
2019-03-25T11:44:29.997Z,98094.41
2019-03-25T11:45:38.187Z,98098.07
2019-03-25T11:46:46.191Z,98102.06
2019-03-25T11:47:54.301Z,98099.87
2019-03-25T11:49:02.434Z,98099.70
2019-03-25T11:50:10.779Z,98092.02
2019-03-25T11:51:19.162Z,98096.63
2019-03-25T11:52:27.892Z,98091.89
2019-03-25T11:53:36.070Z,98088.52
2019-03-25T11:54:44.193Z,98082.34
2019-03-25T11:55:52.208Z,98086.48
2019-03-25T11:57:00.491Z,98080.61
2019-03-25T11:58:08.724Z,98084.69
2019-03-25T11:59:18.805Z,98082.98
2019-03-25T12:00:27.065Z,98081.41
2019-03-25T12:01:35.348Z,98081.63
2019-03-25T12:02:43.522Z,98081.92
2019-03-25T12:03:51.787Z,98083.63
2019-03-25T12:04:59.926Z,98078.38
2019-03-25T12:06:08.349Z,98074.50
2019-03-25T12:07:16.428Z,98076.83
2019-03-25T12:08:24.362Z,98073.66
2019-03-25T12:09:32.638Z,98070.00
2019-03-25T12:10:40.605Z,98076.16
2019-03-25T12:11:48.424Z,98077.52
2019-03-25T12:12:56.448Z,98081.90
2019-03-25T12:14:04.487Z,98073.23
2019-03-25T12:15:13.381Z,98075.83
2019-03-25T12:16:21.501Z,98080.18
2019-03-25T12:17:29.591Z,98071.89
2019-03-25T12:18:37.815Z,98075.61
2019-03-25T12:19:45.821Z,98080.38
2019-03-25T12:20:53.931Z,98086.37
2019-03-25T12:22:02.029Z,98082.31
2019-03-25T12:23:10.283Z,98080.70
2019-03-25T12:24:18.515Z,98080.26
2019-03-25T12:25:26.483Z,98075.27
2019-03-25T12:26:34.266Z,98079.97
2019-03-25T12:27:42.560Z,98079.47
2019-03-25T12:28:50.505Z,98080.87
2019-03-25T12:29:58.650Z,98081.20
2019-03-25T12:31:06.619Z,98084.62
2019-03-25T12:32:14.871Z,98080.54
2019-03-25T12:33:23.130Z,98087.94
2019-03-25T12:34:31.412Z,98092.25
2019-03-25T12:35:40.253Z,98095.58
2019-03-25T12:36:48.301Z,98096.80
2019-03-25T12:37:56.499Z,98096.39
2019-03-25T12:39:06.977Z,98094.42
2019-03-25T12:40:15.361Z,98104.05
2019-03-25T12:41:23.461Z,98114.15
2019-03-25T12:42:31.962Z,98112.05
2019-03-25T12:43:40.143Z,98111.54
2019-03-25T12:44:48.258Z,98115.75
2019-03-25T12:45:56.768Z,98118.65
2019-03-25T12:47:04.960Z,98125.09
2019-03-25T12:48:13.007Z,98130.12
2019-03-25T12:49:20.815Z,98149.43
2019-03-25T12:50:28.803Z,98168.09
2019-03-25T12:51:36.837Z,98168.63
2019-03-25T12:52:45.435Z,98163.41
2019-03-25T12:53:53.509Z,98163.95
2019-03-25T12:55:01.843Z,98166.21
2019-03-25T12:56:09.930Z,98165.58
2019-03-25T12:57:18.295Z,98173.70
2019-03-25T12:58:26.249Z,98168.44
2019-03-25T12:59:41.306Z,98159.86
2019-03-25T13:00:45.129Z,98159.71
2019-03-25T13:01:53.485Z,98152.77
2019-03-25T13:03:01.599Z,98140.17
2019-03-25T13:04:09.618Z,98140.17
2019-03-25T13:05:17.623Z,98137.11
2019-03-25T13:06:25.669Z,98135.29
2019-03-25T13:07:33.565Z,98134.47
2019-03-25T13:08:41.551Z,98131.80
2019-03-25T13:09:49.756Z,98130.16
2019-03-25T13:10:58.274Z,98126.39
2019-03-25T13:12:06.444Z,98130.98
2019-03-25T13:13:14.872Z,98130.02
2019-03-25T13:14:23.066Z,98130.45
2019-03-25T13:15:31.174Z,98136.34
2019-03-25T13:16:39.898Z,98136.19
2019-03-25T13:17:48.225Z,98140.83
2019-03-25T13:18:56.469Z,98149.78
2019-03-25T13:20:06.596Z,98148.60
2019-03-25T13:21:14.842Z,98150.02